Time;durP1;ratioP1;P1;durP2;ratioP2;P2;SDS_P1;SDS_P2;PMS_P1;PMS_P2;Temp;Humidity;BMP_temperature;BMP_pressure;BME280_temperature;BME280_humidity;BME280_pressure;Samples;Min_cycle;Max_cycle;Signal;HPM_P1;HPM_P2
2024/04/11 00:00:49;;;;;;;;;;;;;;;12.52;58.26;102015.77;107522;1254;107320;-63
2024/04/11 00:03:37;;;;;;;;;;;;;;;12.43;58.27;102018.42;107484;1254;100430;-63
2024/04/11 00:06:06;;;;;;;;;;;;;;;12.38;57.97;102015.98;107518;1254;100559;-64
2024/04/11 00:08:34;;;;;;;;;;;;;;;12.33;57.69;102018.11;107512;1254;116208;-63
2024/04/11 00:11:02;;;;;;;;;;;;;;;12.23;57.66;102022.65;107531;1254;107533;-64
2024/04/11 00:13:32;;;;;;;;;;;;;;;12.16;57.59;102028.89;107502;1254;107864;-64
2024/04/11 00:15:59;;;;;;;;;;;;;;;12.15;57.46;102031.70;107507;1253;100529;-64
2024/04/11 00:18:28;;;;;;;;;;;;;;;12.15;57.36;102034.00;107487;1256;100613;-66
2024/04/11 00:20:56;;;;;;;;;;;;;;;12.18;57.13;102038.30;107547;1254;114592;-65
2024/04/11 00:23:25;;;;;;;;;;;;;;;12.21;56.89;102045.83;107510;1254;108393;-65
2024/04/11 00:25:57;;;;;;;;;;;;;;;12.22;56.56;102051.67;107513;1254;107184;-64
2024/04/11 00:28:26;;;;;;;;;;;;;;;12.22;56.33;102054.91;107553;1254;101209;-63
2024/04/11 00:30:54;;;;;;;;;;;;;;;12.21;56.37;102053.54;107523;1254;100539;-63
2024/04/11 00:33:22;;;;;;;;;;;;;;;12.20;56.85;102058.63;107541;1254;114531;-64
2024/04/11 00:35:51;;;;;;;;;;;;;;;12.19;56.97;102059.86;107569;1254;108392;-64
2024/04/11 00:38:23;;;;;;;;;;;;;;;12.17;57.06;102056.57;107500;1254;107317;-63
2024/04/11 00:40:55;;;;;;;;;;;;;;;12.16;57.16;102057.38;107499;1254;100603;-64
2024/04/11 00:43:24;;;;;;;;;;;;;;;12.14;57.21;102062.14;107533;1256;100524;-63
2024/04/11 00:45:52;;;;;;;;;;;;;;;12.15;57.03;102062.45;107524;1254;114504;-63
2024/04/11 00:48:21;;;;;;;;;;;;;;;12.18;57.49;102064.77;107498;1254;107145;-63
2024/04/11 00:50:50;;;;;;;;;;;;;;;12.20;58.74;102067.31;107519;1254;107604;-64
2024/04/11 00:53:22;;;;;;;;;;;;;;;12.21;59.98;102072.23;107483;1254;100556;-64
2024/04/11 00:55:51;;;;;;;;;;;;;;;12.25;60.87;102078.27;107582;1254;100418;-64
2024/04/11 00:58:22;;;;;;;;;;;;;;;12.28;60.75;102080.91;107540;1255;114291;-64
2024/04/11 01:00:49;;;;;;;;;;;;;;;12.32;62.22;102080.44;107602;1256;109049;-64
2024/04/11 01:03:18;;;;;;;;;;;;;;;12.39;64.26;102084.08;107506;1254;107993;-64
2024/04/11 01:05:47;;;;;;;;;;;;;;;12.48;63.92;102086.80;107576;1254;100530;-65
2024/04/11 01:08:15;;;;;;;;;;;;;;;12.55;64.43;102088.46;107528;1254;100607;-63
2024/04/11 01:10:43;;;;;;;;;;;;;;;12.60;63.34;102082.45;107463;1254;113652;-64
2024/04/11 01:13:12;;;;;;;;;;;;;;;12.66;63.26;102082.94;107607;1256;108324;-63
2024/04/11 01:15:40;;;;;;;;;;;;;;;12.73;64.09;102083.83;107561;1254;108423;-65
2024/04/11 01:18:09;;;;;;;;;;;;;;;12.77;63.83;102084.76;107562;1254;100552;-64
2024/04/11 01:20:37;;;;;;;;;;;;;;;12.82;64.18;102083.10;107565;1255;100424;-64
2024/04/11 01:23:08;;;;;;;;;;;;;;;12.89;64.57;102089.42;107482;1253;113927;-65
2024/04/11 01:25:36;;;;;;;;;;;;;;;12.93;64.75;102087.70;107517;1254;107841;-64
2024/04/11 01:28:05;;;;;;;;;;;;;;;12.96;64.52;102088.34;107547;1254;108028;-64
2024/04/11 01:30:33;;;;;;;;;;;;;;;13.01;64.52;102090.30;107542;1256;100626;-64
2024/04/11 01:33:01;;;;;;;;;;;;;;;13.06;64.71;102091.20;107553;1253;100600;-64
2024/04/11 01:35:31;;;;;;;;;;;;;;;13.09;64.76;102090.39;107561;1256;116627;-64
2024/04/11 01:37:59;;;;;;;;;;;;;;;13.12;64.54;102088.77;107607;1254;107932;-65
2024/04/11 01:40:31;;;;;;;;;;;;;;;13.15;64.98;102088.84;107561;1256;107821;-65
2024/04/11 01:43:00;;;;;;;;;;;;;;;13.20;65.95;102091.95;107562;1255;100530;-64
2024/04/11 01:45:27;;;;;;;;;;;;;;;13.24;66.37;102098.43;107539;1256;100437;-64
2024/04/11 01:47:56;;;;;;;;;;;;;;;13.27;66.35;102102.36;107596;1254;114093;-64
2024/04/11 01:50:24;;;;;;;;;;;;;;;13.29;67.80;102101.98;107540;1254;108331;-64
2024/04/11 01:52:52;;;;;;;;;;;;;;;13.30;66.96;102101.91;107582;1256;108735;-65
2024/04/11 01:55:20;;;;;;;;;;;;;;;13.34;67.74;102104.73;107512;1254;100523;-64
2024/04/11 01:57:48;;;;;;;;;;;;;;;13.37;69.40;102109.17;107595;1254;100689;-64
2024/04/11 02:00:16;;;;;;;;;;;;;;;13.39;68.38;102112.62;107526;1254;113897;-64
2024/04/11 02:02:44;;;;;;;;;;;;;;;13.41;67.93;102114.07;107551;1254;107713;-64
2024/04/11 02:05:14;;;;;;;;;;;;;;;13.41;68.18;102115.14;107592;1254;106916;-63
2024/04/11 02:07:42;;;;;;;;;;;;;;;13.40;67.46;102116.13;107520;1256;100542;-63
2024/04/11 02:10:11;;;;;;;;;;;;;;;13.37;67.27;102116.15;107575;1254;101247;-64
2024/04/11 02:12:38;;;;;;;;;;;;;;;13.32;66.72;102125.77;107566;1256;114476;-64
2024/04/11 02:15:07;;;;;;;;;;;;;;;13.30;66.50;102126.80;107556;1254;109103;-64
2024/04/11 02:17:35;;;;;;;;;;;;;;;13.31;66.50;102128.01;107580;1254;108156;-64
2024/04/11 02:20:10;;;;;;;;;;;;;;;13.29;66.18;102129.00;107548;1254;100529;-64
2024/04/11 02:22:38;;;;;;;;;;;;;;;13.25;65.68;102131.84;107616;1254;100625;-64
2024/04/11 02:25:07;;;;;;;;;;;;;;;13.23;65.69;102138.33;107574;1254;114003;-65
2024/04/11 02:27:35;;;;;;;;;;;;;;;13.21;65.60;102137.21;107594;1254;107114;-62
2024/04/11 02:30:05;;;;;;;;;;;;;;;13.23;66.52;102135.49;107550;1254;107684;-63
2024/04/11 02:32:33;;;;;;;;;;;;;;;13.25;66.94;102146.14;107594;1254;100525;-64
2024/04/11 02:35:05;;;;;;;;;;;;;;;13.26;66.82;102145.86;107589;1254;100414;-66
2024/04/11 02:37:33;;;;;;;;;;;;;;;13.26;67.41;102151.10;107588;1256;114392;-64
2024/04/11 02:40:02;;;;;;;;;;;;;;;13.26;67.78;102153.23;107597;1254;108063;-63
2024/04/11 02:42:30;;;;;;;;;;;;;;;13.26;68.02;102156.48;107589;1254;107640;-65
2024/04/11 02:44:58;;;;;;;;;;;;;;;13.27;67.78;102156.25;107577;1254;100555;-63
2024/04/11 02:47:27;;;;;;;;;;;;;;;13.26;67.76;102160.98;107483;1254;100578;-63
2024/04/11 02:49:56;;;;;;;;;;;;;;;13.23;67.90;102163.77;107565;1253;114606;-63
2024/04/11 02:52:24;;;;;;;;;;;;;;;13.19;68.01;102166.02;107583;1254;107271;-64
2024/04/11 02:54:53;;;;;;;;;;;;;;;13.17;68.50;102167.08;107553;1254;107441;-63
2024/04/11 02:57:21;;;;;;;;;;;;;;;13.15;68.96;102170.11;107545;1254;100623;-63
2024/04/11 02:59:53;;;;;;;;;;;;;;;13.11;68.90;102174.34;107556;1257;100651;-65
2024/04/11 03:02:23;;;;;;;;;;;;;;;13.09;69.39;102179.04;107533;1256;113519;-63
2024/04/11 03:04:52;;;;;;;;;;;;;;;13.08;70.08;102178.02;107594;1254;107749;-63
2024/04/11 03:07:20;;;;;;;;;;;;;;;13.05;69.80;102180.77;107546;1252;107727;-66
2024/04/11 03:09:53;;;;;;;;;;;;;;;13.05;70.09;102182.19;107448;1254;100606;-64
2024/04/11 03:12:21;;;;;;;;;;;;;;;13.05;70.84;102182.04;107607;1255;100393;-63
2024/04/11 03:14:49;;;;;;;;;;;;;;;13.00;70.86;102182.40;107580;1256;114422;-64
2024/04/11 03:17:18;;;;;;;;;;;;;;;12.99;70.49;102186.46;107535;1256;106413;-64
2024/04/11 03:19:46;;;;;;;;;;;;;;;12.98;70.90;102187.43;107588;1254;107778;-63
2024/04/11 03:22:14;;;;;;;;;;;;;;;12.96;71.26;102192.23;107530;1254;100632;-65
2024/04/11 03:24:44;;;;;;;;;;;;;;;12.94;71.24;102195.27;107583;1256;101206;-64
2024/04/11 03:27:13;;;;;;;;;;;;;;;12.94;71.53;102194.22;107542;1256;114473;-64
2024/04/11 03:29:43;;;;;;;;;;;;;;;12.94;71.85;102200.36;107566;1254;108413;-63
2024/04/11 03:32:12;;;;;;;;;;;;;;;12.92;71.86;102198.48;107561;1256;108781;-64
2024/04/11 03:34:40;;;;;;;;;;;;;;;12.90;72.01;102202.98;107546;1254;100586;-64
2024/04/11 03:37:09;;;;;;;;;;;;;;;12.92;71.99;102200.84;107571;1256;100534;-63
2024/04/11 03:39:38;;;;;;;;;;;;;;;12.93;71.80;102201.53;107612;1256;114526;-64
2024/04/11 03:42:07;;;;;;;;;;;;;;;12.93;72.19;102202.91;107577;1256;107393;-65
2024/04/11 03:44:36;;;;;;;;;;;;;;;12.94;72.28;102205.59;107595;1257;108010;-65
2024/04/11 03:47:05;;;;;;;;;;;;;;;12.92;72.51;102205.73;107492;1254;100488;-64
2024/04/11 03:49:37;;;;;;;;;;;;;;;12.91;73.09;102213.90;107594;1254;100517;-66
2024/04/11 03:52:09;;;;;;;;;;;;;;;12.90;72.94;102215.94;107560;1256;114258;-63
2024/04/11 03:54:37;;;;;;;;;;;;;;;12.91;72.67;102217.33;107596;1256;107374;-69
2024/04/11 03:57:07;;;;;;;;;;;;;;;12.94;72.77;102219.29;107538;1256;107832;-65
2024/04/11 03:59:36;;;;;;;;;;;;;;;12.96;72.96;102223.98;107591;1251;100527;-66
2024/04/11 04:02:04;;;;;;;;;;;;;;;12.97;72.79;102222.27;107551;1255;100462;-65
2024/04/11 04:04:34;;;;;;;;;;;;;;;12.99;72.92;102226.21;107509;1251;114789;-64
2024/04/11 04:07:07;;;;;;;;;;;;;;;13.03;72.79;102228.48;107559;1255;106995;-64
2024/04/11 04:09:36;;;;;;;;;;;;;;;13.05;72.57;102232.98;107613;1256;107306;-64
2024/04/11 04:12:05;;;;;;;;;;;;;;;13.06;73.38;102230.42;107556;1254;100536;-65
2024/04/11 04:14:33;;;;;;;;;;;;;;;13.06;73.67;102232.59;107603;1257;101260;-64
2024/04/11 04:17:02;;;;;;;;;;;;;;;13.05;73.02;102235.52;107564;1251;115186;-65
2024/04/11 04:19:30;;;;;;;;;;;;;;;13.08;73.10;102236.75;107576;1254;107979;-66
2024/04/11 04:21:59;;;;;;;;;;;;;;;13.12;72.87;102242.59;107581;1251;107741;-64
2024/04/11 04:24:27;;;;;;;;;;;;;;;13.15;72.62;102244.34;107590;1256;100514;-64
2024/04/11 04:26:56;;;;;;;;;;;;;;;13.20;72.33;102245.08;107576;1254;100607;-64
2024/04/11 04:29:25;;;;;;;;;;;;;;;13.23;72.94;102244.47;107555;1254;113573;-64
2024/04/11 04:31:54;;;;;;;;;;;;;;;13.27;72.31;102249.35;107598;1254;106842;-65
2024/04/11 04:34:23;;;;;;;;;;;;;;;13.33;72.28;102250.89;107566;1251;108126;-64
2024/04/11 04:36:51;;;;;;;;;;;;;;;13.36;72.31;102251.40;107507;1254;100636;-65
2024/04/11 04:39:30;;;;;;;;;;;;;;;13.39;72.20;102251.86;107552;1254;100523;-64
2024/04/11 04:41:58;;;;;;;;;;;;;;;13.45;71.63;102251.42;107574;1256;114570;-63
2024/04/11 04:44:28;;;;;;;;;;;;;;;13.51;71.86;102252.08;107448;1255;107766;-64
2024/04/11 04:46:56;;;;;;;;;;;;;;;13.54;71.51;102258.31;107569;1254;107381;-65
2024/04/11 04:49:24;;;;;;;;;;;;;;;13.61;71.37;102261.02;107533;1256;100522;-64
2024/04/11 04:51:52;;;;;;;;;;;;;;;13.71;71.36;102264.77;107615;1253;101041;-64
2024/04/11 04:54:21;;;;;;;;;;;;;;;13.77;71.15;102260.35;107567;1252;114057;-64
2024/04/11 04:56:50;;;;;;;;;;;;;;;13.82;70.76;102263.57;107579;1254;107385;-64
2024/04/11 04:59:18;;;;;;;;;;;;;;;13.88;71.43;102261.13;107551;1254;107657;-64
2024/04/11 05:01:46;;;;;;;;;;;;;;;13.90;71.69;102264.52;107581;1253;100552;-65
2024/04/11 05:04:14;;;;;;;;;;;;;;;13.92;71.67;102263.86;107587;1252;100756;-65
2024/04/11 05:06:45;;;;;;;;;;;;;;;13.94;71.85;102265.65;107546;1251;113946;-65
2024/04/11 05:09:13;;;;;;;;;;;;;;;13.97;71.41;102263.48;107685;1256;109570;-64
2024/04/11 05:11:44;;;;;;;;;;;;;;;14.06;71.28;102267.42;107435;1253;106986;-63
2024/04/11 05:14:12;;;;;;;;;;;;;;;14.13;71.28;102265.86;107589;1254;100539;-64
2024/04/11 05:16:43;;;;;;;;;;;;;;;14.18;71.09;102266.15;107639;1251;100504;-64
2024/04/11 05:19:15;;;;;;;;;;;;;;;14.26;70.67;102266.22;107445;1254;114260;-64
2024/04/11 05:21:44;;;;;;;;;;;;;;;14.33;70.97;102269.45;107558;1254;107476;-66
2024/04/11 05:24:12;;;;;;;;;;;;;;;14.32;70.95;102269.29;107491;1251;107125;-64
2024/04/11 05:26:41;;;;;;;;;;;;;;;14.33;70.79;102269.23;107481;1254;100557;-64
2024/04/11 05:29:10;;;;;;;;;;;;;;;14.37;70.78;102272.36;107569;1254;101287;-65
2024/04/11 05:31:38;;;;;;;;;;;;;;;14.44;70.40;102269.63;107407;1254;114168;-65
2024/04/11 05:34:07;;;;;;;;;;;;;;;14.46;70.39;102272.73;107563;1254;108669;-64
2024/04/11 05:36:39;;;;;;;;;;;;;;;14.49;70.25;102269.58;107525;1251;107054;-65
2024/04/11 05:39:09;;;;;;;;;;;;;;;14.53;70.16;102268.67;107542;1253;100528;-65
2024/04/11 05:41:39;;;;;;;;;;;;;;;14.56;70.15;102272.95;107616;1251;100641;-64
2024/04/11 05:44:07;;;;;;;;;;;;;;;14.62;70.10;102275.23;107596;1254;113358;-65
2024/04/11 05:46:35;;;;;;;;;;;;;;;14.68;69.89;102277.08;107557;1254;108520;-66
2024/04/11 05:49:04;;;;;;;;;;;;;;;14.74;69.73;102276.45;107528;1254;107780;-66
2024/04/11 05:51:35;;;;;;;;;;;;;;;14.81;69.47;102281.62;107576;1255;100513;-65
2024/04/11 05:54:03;;;;;;;;;;;;;;;14.89;69.44;102280.42;107579;1254;100411;-65
2024/04/11 05:56:34;;;;;;;;;;;;;;;14.99;69.24;102284.64;107570;1256;113372;-65
2024/04/11 05:59:03;;;;;;;;;;;;;;;15.12;68.92;102285.91;107486;1254;108276;-65
2024/04/11 06:01:36;;;;;;;;;;;;;;;15.26;68.63;102289.67;107643;1254;109036;-65
2024/04/11 06:04:06;;;;;;;;;;;;;;;15.41;68.29;102287.70;107558;1251;101032;-65
2024/04/11 06:06:35;;;;;;;;;;;;;;;15.59;68.02;102285.63;107535;1251;100370;-65
2024/04/11 06:09:03;;;;;;;;;;;;;;;15.81;67.66;102289.65;107516;1251;114019;-65
2024/04/11 06:11:32;;;;;;;;;;;;;;;16.01;67.34;102285.96;107532;1251;108096;-64
2024/04/11 06:14:00;;;;;;;;;;;;;;;16.23;66.59;102289.66;107478;1251;107575;-65
2024/04/11 06:16:29;;;;;;;;;;;;;;;16.40;66.09;102298.45;107435;1254;100498;-65
2024/04/11 06:18:57;;;;;;;;;;;;;;;16.58;65.47;102297.27;107649;1253;100494;-65
2024/04/11 06:21:32;;;;;;;;;;;;;;;16.72;65.17;102295.63;107585;1254;113976;-65
2024/04/11 06:24:04;;;;;;;;;;;;;;;16.87;64.65;102301.19;107646;1254;108102;-64
2024/04/11 06:26:35;;;;;;;;;;;;;;;17.03;64.43;102302.30;107582;1254;107644;-65
2024/04/11 06:29:08;;;;;;;;;;;;;;;17.18;63.37;102297.40;107428;1254;100530;-63
2024/04/11 06:31:38;;;;;;;;;;;;;;;17.27;62.92;102303.19;107473;1256;100807;-65
2024/04/11 06:34:08;;;;;;;;;;;;;;;17.36;61.86;102298.91;107455;1254;114572;-65
2024/04/11 06:36:38;;;;;;;;;;;;;;;17.40;61.47;102300.35;107473;1253;107527;-63
2024/04/11 06:39:13;;;;;;;;;;;;;;;17.43;61.43;102302.98;107443;1254;108140;-64
2024/04/11 06:41:42;;;;;;;;;;;;;;;17.51;61.21;102307.04;107485;1254;100652;-66
2024/04/11 06:44:12;;;;;;;;;;;;;;;17.62;60.70;102307.17;107622;1254;100602;-64
2024/04/11 06:46:44;;;;;;;;;;;;;;;17.66;60.42;102307.14;107632;1255;114610;-65
2024/04/11 06:49:12;;;;;;;;;;;;;;;17.76;60.57;102308.22;107490;1254;108322;-65
2024/04/11 06:51:41;;;;;;;;;;;;;;;17.86;60.34;102308.50;107597;1254;107701;-65
2024/04/11 06:54:14;;;;;;;;;;;;;;;17.93;59.95;102311.48;107584;1253;100625;-65
2024/04/11 06:56:45;;;;;;;;;;;;;;;18.06;59.41;102316.05;107525;1254;100437;-65
2024/04/11 06:59:17;;;;;;;;;;;;;;;18.16;59.08;102317.17;107488;1254;114644;-65
2024/04/11 07:01:48;;;;;;;;;;;;;;;18.23;58.83;102312.87;107606;1254;108196;-64
2024/04/11 07:04:16;;;;;;;;;;;;;;;18.28;59.06;102313.82;107564;1254;108190;-64
2024/04/11 07:06:48;;;;;;;;;;;;;;;18.38;58.71;102317.80;107417;1254;100668;-64
2024/04/11 07:09:17;;;;;;;;;;;;;;;18.47;58.23;102315.05;107601;1256;100545;-65
2024/04/11 07:11:48;;;;;;;;;;;;;;;18.55;58.19;102314.86;107623;1254;113905;-65
2024/04/11 07:14:23;;;;;;;;;;;;;;;18.67;57.83;102314.39;107527;1254;108799;-66
2024/04/11 07:16:56;;;;;;;;;;;;;;;18.81;56.81;102311.17;107538;1253;107776;-68
2024/04/11 07:19:27;;;;;;;;;;;;;;;18.88;56.92;102311.73;107412;1254;100654;-65
2024/04/11 07:21:55;;;;;;;;;;;;;;;19.04;56.94;102312.40;107507;1254;101215;-65
2024/04/11 07:24:23;;;;;;;;;;;;;;;19.21;56.53;102311.58;107507;1253;114561;-65
2024/04/11 07:26:51;;;;;;;;;;;;;;;19.33;56.07;102309.59;107559;1254;108575;-65
2024/04/11 07:29:22;;;;;;;;;;;;;;;19.44;55.56;102310.15;107604;1254;107801;-65
2024/04/11 07:31:52;;;;;;;;;;;;;;;19.58;54.82;102308.57;107583;1253;101310;-65
2024/04/11 07:34:22;;;;;;;;;;;;;;;19.65;54.41;102308.04;107613;1253;100650;-65
2024/04/11 07:36:51;;;;;;;;;;;;;;;19.69;54.51;102305.91;107537;1253;114017;-66
2024/04/11 07:39:20;;;;;;;;;;;;;;;19.78;54.83;102306.83;107552;1252;107522;-64
2024/04/11 07:42:00;;;;;;;;;;;;;;;19.92;53.48;102308.15;107601;1256;108142;-64
2024/04/11 07:44:28;;;;;;;;;;;;;;;19.95;53.60;102306.80;107502;1254;100527;-65
2024/04/11 07:47:05;;;;;;;;;;;;;;;20.03;53.33;102313.77;107617;1254;100434;-65
2024/04/11 07:49:46;;;;;;;;;;;;;;;20.13;52.66;102310.30;107539;1254;114262;-64
2024/04/11 07:52:15;;;;;;;;;;;;;;;20.14;52.66;102316.20;107611;1254;108277;-65
2024/04/11 07:54:43;;;;;;;;;;;;;;;20.18;52.54;102315.30;107550;1254;108585;-65
2024/04/11 07:57:22;;;;;;;;;;;;;;;20.22;52.27;102313.05;107631;1254;100532;-65
2024/04/11 07:59:50;;;;;;;;;;;;;;;20.24;52.43;102320.88;106940;1253;901024;-65
2024/04/11 08:02:18;;;;;;;;;;;;;;;20.33;52.50;102325.39;107605;1251;114040;-66
2024/04/11 08:04:47;;;;;;;;;;;;;;;20.52;52.26;102327.02;107555;1254;107903;-66
2024/04/11 08:07:15;;;;;;;;;;;;;;;20.65;51.51;102323.98;107545;1254;107914;-65
2024/04/11 08:09:55;;;;;;;;;;;;;;;20.82;51.23;102324.55;107623;1251;100751;-65
2024/04/11 08:12:24;;;;;;;;;;;;;;;20.90;51.47;102323.71;107650;1254;100528;-66
2024/04/11 08:14:52;;;;;;;;;;;;;;;21.02;50.86;102322.92;107636;1254;113213;-65
2024/04/11 08:17:21;;;;;;;;;;;;;;;21.02;50.41;102327.13;107580;1254;109154;-64
2024/04/11 08:19:50;;;;;;;;;;;;;;;20.89;49.94;102339.06;107594;1254;109117;-66
2024/04/11 08:22:28;;;;;;;;;;;;;;;20.70;49.80;102340.36;107621;1254;100729;-65
2024/04/11 08:24:57;;;;;;;;;;;;;;;20.64;50.12;102344.73;107635;1253;100493;-65
2024/04/11 08:27:25;;;;;;;;;;;;;;;20.83;50.19;102344.92;107615;1251;114503;-66
2024/04/11 08:29:53;;;;;;;;;;;;;;;21.00;49.48;102348.16;107472;1253;108857;-66
2024/04/11 08:32:21;;;;;;;;;;;;;;;20.95;49.45;102339.43;107587;1254;107492;-66
2024/04/11 08:34:50;;;;;;;;;;;;;;;21.07;49.36;102348.52;107623;1251;100533;-64
2024/04/11 08:37:22;;;;;;;;;;;;;;;21.20;48.86;102340.74;107537;1252;100534;-65
2024/04/11 08:39:50;;;;;;;;;;;;;;;21.30;49.01;102342.00;107600;1254;114101;-65
2024/04/11 08:42:19;;;;;;;;;;;;;;;21.37;48.62;102342.11;107637;1254;107655;-67
2024/04/11 08:44:49;;;;;;;;;;;;;;;21.39;48.29;102346.65;107566;1253;107826;-64
2024/04/11 08:47:17;;;;;;;;;;;;;;;21.46;48.59;102343.67;107568;1256;101230;-65
2024/04/11 08:49:45;;;;;;;;;;;;;;;21.49;47.90;102344.48;107607;1252;100591;-65
2024/04/11 08:52:22;;;;;;;;;;;;;;;21.75;48.16;102343.07;107424;1254;114512;-66
2024/04/11 08:54:51;;;;;;;;;;;;;;;21.98;47.41;102337.75;107590;1254;108054;-66
2024/04/11 08:57:19;;;;;;;;;;;;;;;22.16;46.87;102337.06;107591;1254;108111;-65
2024/04/11 08:59:48;;;;;;;;;;;;;;;22.30;46.45;102332.09;107573;1251;100636;-65
2024/04/11 09:02:16;;;;;;;;;;;;;;;22.31;46.06;102336.41;107478;1250;100424;-66
2024/04/11 09:04:44;;;;;;;;;;;;;;;22.14;45.66;102332.52;107471;1251;114467;-66
2024/04/11 09:07:23;;;;;;;;;;;;;;;22.01;45.80;102331.80;107531;1254;108306;-66
2024/04/11 09:09:51;;;;;;;;;;;;;;;22.06;46.29;102328.27;107510;1254;108340;-66
2024/04/11 09:12:22;;;;;;;;;;;;;;;22.29;45.92;102329.86;107475;1251;100536;-66
2024/04/11 09:14:50;;;;;;;;;;;;;;;22.50;45.44;102331.02;107469;1251;100451;-65
2024/04/11 09:17:18;;;;;;;;;;;;;;;22.69;44.91;102333.08;107469;1254;113930;-66
2024/04/11 09:20:00;;;;;;;;;;;;;;;22.51;44.44;102334.55;107499;1251;108405;-65
2024/04/11 09:22:28;;;;;;;;;;;;;;;22.40;44.85;102329.55;107510;1251;108117;-66
2024/04/11 09:24:57;;;;;;;;;;;;;;;22.51;45.18;102319.73;107491;1251;100513;-66
2024/04/11 09:27:25;;;;;;;;;;;;;;;23.05;45.45;102326.45;107466;1250;100523;-65
2024/04/11 09:29:57;;;;;;;;;;;;;;;23.46;43.10;102323.42;107466;1251;114222;-66
2024/04/11 09:32:26;;;;;;;;;;;;;;;23.68;42.45;102323.45;107462;1251;108657;-66
2024/04/11 09:34:56;;;;;;;;;;;;;;;24.13;42.18;102318.95;107527;1251;108366;-66
2024/04/11 09:37:26;;;;;;;;;;;;;;;24.61;40.56;102320.67;107520;1253;100614;-66
2024/04/11 09:39:56;;;;;;;;;;;;;;;25.25;40.38;102317.85;107679;1254;100538;-66
2024/04/11 09:42:30;;;;;;;;;;;;;;;25.62;38.90;102311.23;107626;1254;113237;-65
2024/04/11 09:45:00;;;;;;;;;;;;;;;26.18;38.85;102309.00;107585;1252;108530;-65
2024/04/11 09:47:31;;;;;;;;;;;;;;;26.58;37.28;102313.14;107450;1253;108640;-65
2024/04/11 09:50:04;;;;;;;;;;;;;;;26.63;37.44;102307.80;107639;1252;100561;-65
2024/04/11 09:52:37;;;;;;;;;;;;;;;27.18;36.73;102299.23;107656;1253;100422;-66
2024/04/11 09:55:10;;;;;;;;;;;;;;;27.58;36.01;102305.13;107583;1254;114474;-64
2024/04/11 09:57:40;;;;;;;;;;;;;;;27.90;35.08;102303.83;107560;1253;107507;-64
2024/04/11 10:00:09;;;;;;;;;;;;;;;28.08;34.53;102299.13;107597;1253;107431;-64
2024/04/11 10:02:38;;;;;;;;;;;;;;;28.58;34.97;102296.54;107512;1252;101276;-65
2024/04/11 10:05:08;;;;;;;;;;;;;;;29.24;33.31;102300.03;107503;1253;100437;-65
2024/04/11 10:07:43;;;;;;;;;;;;;;;29.48;33.28;102298.07;107565;1253;114891;-65
2024/04/11 10:10:22;;;;;;;;;;;;;;;30.01;32.70;102302.48;107594;1254;108435;-66
2024/04/11 10:12:54;;;;;;;;;;;;;;;30.47;32.24;102299.70;107548;1254;107443;-66
2024/04/11 10:15:22;;;;;;;;;;;;;;;30.48;30.67;102300.96;107530;1252;100576;-67
2024/04/11 10:18:10;;;;;;;;;;;;;;;30.76;31.75;102300.36;107562;1253;100412;-65
2024/04/11 10:20:39;;;;;;;;;;;;;;;31.20;30.93;102301.77;107583;1253;114570;-65
2024/04/11 10:23:09;;;;;;;;;;;;;;;31.29;30.33;102301.83;107560;1254;108515;-66
2024/04/11 10:25:38;;;;;;;;;;;;;;;30.74;29.54;102302.29;107544;1256;107274;-65
2024/04/11 10:28:10;;;;;;;;;;;;;;;30.28;31.17;102297.14;107542;1253;100556;-65
2024/04/11 10:30:40;;;;;;;;;;;;;;;30.70;30.83;102296.64;107614;1254;101267;-65
2024/04/11 10:33:13;;;;;;;;;;;;;;;30.69;30.23;102294.23;107649;1254;113561;-64
2024/04/11 10:35:46;;;;;;;;;;;;;;;30.86;30.51;102292.14;107662;1251;107947;-67
2024/04/11 10:38:19;;;;;;;;;;;;;;;30.89;30.30;102285.67;107520;1251;108147;-64
2024/04/11 10:40:48;;;;;;;;;;;;;;;31.55;29.14;102280.61;107566;1251;100554;-64
2024/04/11 10:43:24;;;;;;;;;;;;;;;31.88;29.58;102280.64;107554;1251;100427;-63
2024/04/11 10:45:52;;;;;;;;;;;;;;;32.24;29.26;102280.97;107531;1253;115206;-64
2024/04/11 10:48:22;;;;;;;;;;;;;;;32.85;29.56;102280.91;107533;1253;107960;-63
2024/04/11 10:50:52;;;;;;;;;;;;;;;33.51;28.19;102273.61;107562;1254;108298;-64
2024/04/11 10:53:24;;;;;;;;;;;;;;;33.57;27.35;102267.52;107551;1254;100525;-63
2024/04/11 10:56:20;;;;;;;;;;;;;;;33.41;27.02;102267.23;107674;1254;100741;-63
2024/04/11 10:58:44;;;;;;;;;;;;;;;32.94;26.74;102268.02;107675;1254;114082;-63
2024/04/11 11:01:13;;;;;;;;;;;;;;;32.84;27.63;102261.88;107540;1251;108821;-63
2024/04/11 11:06:34;;;;;;;;;;;;;;;34.08;27.18;102253.34;107557;1251;100541;-63
2024/04/11 11:09:10;;;;;;;;;;;;;;;33.90;25.42;102253.76;107513;1251;100503;-64
2024/04/11 11:11:45;;;;;;;;;;;;;;;34.11;26.17;102246.52;107514;1251;115089;-63
2024/04/11 11:14:20;;;;;;;;;;;;;;;34.53;26.27;102241.94;107520;1254;108755;-63
2024/04/11 11:16:48;;;;;;;;;;;;;;;34.98;25.65;102239.13;107565;1255;108859;-65
2024/04/11 11:19:16;;;;;;;;;;;;;;;35.48;24.45;102233.81;107608;1255;100637;-63
2024/04/11 11:21:50;;;;;;;;;;;;;;;35.55;24.43;102234.79;107602;1254;100610;-64
2024/04/11 11:24:23;;;;;;;;;;;;;;;35.64;24.72;102239.42;107631;1253;113510;-65
2024/04/11 11:26:56;;;;;;;;;;;;;;;35.83;24.58;102237.05;107546;1254;108820;-63
2024/04/11 11:29:28;;;;;;;;;;;;;;;35.83;23.90;102239.19;107638;1251;108413;-63
2024/04/11 11:32:04;;;;;;;;;;;;;;;35.80;24.55;102231.00;107490;1251;100530;-64
2024/04/11 11:34:42;;;;;;;;;;;;;;;36.05;23.66;102229.60;107567;1251;100551;-63
2024/04/11 11:37:14;;;;;;;;;;;;;;;36.11;24.21;102223.42;107623;1253;114885;-64
2024/04/11 11:39:49;;;;;;;;;;;;;;;36.54;23.14;102222.02;107670;1252;108823;-64
2024/04/11 11:42:32;;;;;;;;;;;;;;;35.72;22.93;102218.61;107587;1254;108609;-64
2024/04/11 11:47:33;;;;;;;;;;;;;;;33.92;24.92;102207.36;107601;1254;100538;-64
2024/04/11 11:50:07;;;;;;;;;;;;;;;33.55;25.37;102204.56;107616;1250;113409;-65
2024/04/11 11:52:36;;;;;;;;;;;;;;;33.98;25.33;102204.10;107587;1251;108899;-64
2024/04/11 11:55:04;;;;;;;;;;;;;;;34.11;24.97;102198.66;107535;1250;108344;-64
2024/04/11 11:57:42;;;;;;;;;;;;;;;34.18;25.30;102201.20;107437;1254;100523;-66
2024/04/11 12:00:18;;;;;;;;;;;;;;;34.62;25.37;102191.89;107586;1253;100536;-64
2024/04/11 12:02:50;;;;;;;;;;;;;;;35.12;24.43;102195.36;107584;1254;114476;-70
2024/04/11 12:05:23;;;;;;;;;;;;;;;35.26;24.00;102193.77;107594;1252;108583;-64
2024/04/11 12:07:55;;;;;;;;;;;;;;;35.41;24.61;102187.27;107546;1253;106916;-63
2024/04/11 12:11:14;;;;;;;;;;;;;;;35.92;24.03;102186.14;107613;1252;100526;-63
2024/04/11 12:13:21;;;;;;;;;;;;;;;36.59;22.97;102185.02;107627;1253;100530;-63
2024/04/11 12:15:51;;;;;;;;;;;;;;;37.02;22.63;102185.50;107417;1252;114344;-64
2024/04/11 12:18:22;;;;;;;;;;;;;;;37.22;22.69;102183.23;107588;1253;107276;-63
2024/04/11 12:20:51;;;;;;;;;;;;;;;37.51;22.29;102181.94;107555;1255;108433;-64
2024/04/11 12:23:19;;;;;;;;;;;;;;;37.86;21.85;102179.61;107617;1254;100607;-64
2024/04/11 12:25:50;;;;;;;;;;;;;;;38.08;21.41;102177.95;107666;1253;100526;-62
2024/04/11 12:28:21;;;;;;;;;;;;;;;38.36;20.69;102171.95;107626;1253;114139;-63
2024/04/11 12:31:08;;;;;;;;;;;;;;;38.16;20.51;102170.81;107486;1256;108323;-63
2024/04/11 12:33:45;;;;;;;;;;;;;;;38.11;20.72;102171.14;107587;1252;108629;-63
2024/04/11 12:39:13;;;;;;;;;;;;;;;38.44;20.42;102164.79;107551;1253;100427;-63
2024/04/11 12:41:43;;;;;;;;;;;;;;;38.02;21.12;102160.55;107571;1256;114578;-64